createdAt,value
2023-02-06T00:00:47.952Z,4.46
2023-02-06T00:03:14.315Z,4.45
2023-02-06T00:05:40.933Z,4.44
2023-02-06T00:08:07.731Z,4.45
2023-02-06T00:10:34.229Z,4.43
2023-02-06T00:13:00.949Z,4.44
2023-02-06T00:15:27.296Z,4.43
2023-02-06T00:17:53.687Z,4.42
2023-02-06T00:20:20.247Z,4.42
2023-02-06T00:22:46.611Z,4.39
2023-02-06T00:25:12.942Z,4.38
2023-02-06T00:27:39.493Z,4.38
2023-02-06T00:30:06.365Z,4.36
2023-02-06T00:32:34.637Z,4.37
2023-02-06T00:35:01.195Z,4.35
2023-02-06T00:37:27.552Z,4.34
2023-02-06T00:39:53.893Z,4.33
2023-02-06T00:42:20.708Z,4.32
2023-02-06T00:44:47.233Z,4.31
2023-02-06T00:47:13.557Z,4.29
2023-02-06T00:49:39.916Z,4.28
2023-02-06T00:52:06.393Z,4.27
2023-02-06T00:54:32.790Z,4.26
2023-02-06T00:56:59.117Z,4.25
2023-02-06T00:59:25.490Z,4.25
2023-02-06T01:01:51.850Z,4.23
2023-02-06T01:04:18.276Z,4.23
2023-02-06T01:06:44.633Z,4.22
2023-02-06T01:09:11.049Z,4.22
2023-02-06T01:11:37.549Z,4.21
2023-02-06T01:14:04.085Z,4.22
2023-02-06T01:16:30.454Z,4.22
2023-02-06T01:18:56.834Z,4.22
2023-02-06T01:21:25.164Z,4.23
2023-02-06T01:23:53.808Z,4.25
2023-02-06T01:26:23.120Z,4.25
2023-02-06T01:28:50.086Z,4.25
2023-02-06T01:31:24.377Z,4.26
2023-02-06T01:33:51.756Z,4.27
2023-02-06T01:36:19.937Z,4.26
2023-02-06T01:38:47.434Z,4.27
2023-02-06T01:41:16.651Z,4.27
2023-02-06T01:43:46.548Z,4.26
2023-02-06T01:46:13.227Z,4.26
2023-02-06T01:48:42.899Z,4.25
2023-02-06T01:51:15.047Z,4.25
2023-02-06T01:53:43.744Z,4.23
2023-02-06T01:56:11.312Z,4.23
2023-02-06T01:58:43.100Z,4.23
2023-02-06T02:01:10.021Z,4.23
2023-02-06T02:03:39.609Z,4.23
2023-02-06T02:06:08.760Z,4.23
2023-02-06T02:08:41.050Z,4.25
2023-02-06T02:11:09.284Z,4.23
2023-02-06T02:13:38.169Z,4.25
2023-02-06T02:16:18.122Z,4.26
2023-02-06T02:18:54.980Z,4.24
2023-02-06T02:22:03.490Z,4.25
2023-02-06T02:25:05.156Z,4.23
2023-02-06T02:28:09.204Z,4.22
2023-02-06T02:31:13.232Z,4.21
2023-02-06T02:34:07.642Z,4.19
2023-02-06T02:36:49.100Z,4.18
2023-02-06T02:39:29.198Z,4.17
2023-02-06T02:42:08.551Z,4.17
2023-02-06T02:44:50.376Z,4.14
2023-02-06T02:47:21.012Z,4.15
2023-02-06T02:49:48.396Z,4.13
2023-02-06T02:52:15.996Z,4.11
2023-02-06T02:54:42.609Z,4.09
2023-02-06T02:57:16.135Z,4.05
2023-02-06T02:59:46.350Z,3.97
2023-02-06T03:02:18.827Z,3.89
2023-02-06T03:04:51.167Z,3.81
2023-02-06T03:07:32.772Z,3.71
2023-02-06T03:10:11.765Z,3.63
2023-02-06T03:12:45.042Z,3.55
2023-02-06T03:15:26.860Z,3.48
2023-02-06T03:18:02.478Z,3.43
2023-02-06T03:20:30.218Z,3.39
2023-02-06T03:22:58.328Z,3.34
2023-02-06T03:25:37.059Z,3.27
2023-02-06T03:28:08.037Z,3.22
2023-02-06T03:30:35.180Z,3.16
2023-02-06T03:33:06.053Z,3.13
2023-02-06T03:35:36.077Z,3.11
2023-02-06T03:38:04.956Z,3.10
2023-02-06T03:40:31.705Z,3.13
2023-02-06T03:43:02.685Z,3.15
2023-02-06T03:45:44.125Z,3.19
2023-02-06T03:48:17.237Z,3.23
2023-02-06T03:50:45.639Z,3.27
2023-02-06T03:53:14.481Z,3.32
2023-02-06T03:55:43.192Z,3.38
2023-02-06T03:58:13.889Z,3.44
2023-02-06T04:00:43.316Z,3.48
2023-02-06T04:03:11.021Z,3.54
2023-02-06T04:05:37.965Z,3.57
2023-02-06T04:08:04.860Z,3.62
2023-02-06T04:10:31.326Z,3.65
2023-02-06T04:12:57.781Z,3.66
2023-02-06T04:15:24.209Z,3.67
2023-02-06T04:18:00.063Z,3.67
2023-02-06T04:20:27.675Z,3.65
2023-02-06T04:22:54.060Z,3.62
2023-02-06T04:25:20.476Z,3.57
2023-02-06T04:27:46.921Z,3.54
2023-02-06T04:30:13.663Z,3.49
2023-02-06T04:32:40.004Z,3.45
2023-02-06T04:35:06.548Z,3.41
2023-02-06T04:37:33.205Z,3.38
2023-02-06T04:39:59.608Z,3.36
2023-02-06T04:42:26.035Z,3.36
2023-02-06T04:44:52.450Z,3.36
2023-02-06T04:47:18.878Z,3.37
2023-02-06T04:49:45.224Z,3.37
2023-02-06T04:52:11.581Z,3.38
2023-02-06T04:54:38.076Z,3.39
2023-02-06T04:57:04.415Z,3.42
2023-02-06T04:59:30.908Z,3.44
2023-02-06T05:01:57.277Z,3.47
2023-02-06T05:04:23.640Z,3.51
2023-02-06T05:06:50.163Z,3.55
2023-02-06T05:09:16.488Z,3.61
2023-02-06T05:11:42.850Z,3.63
2023-02-06T05:14:09.347Z,3.69
2023-02-06T05:16:35.745Z,3.73
2023-02-06T05:19:02.101Z,3.76
2023-02-06T05:21:28.735Z,3.79
2023-02-06T05:23:55.340Z,3.82
2023-02-06T05:26:21.824Z,3.85
2023-02-06T05:28:48.279Z,3.86
2023-02-06T05:31:19.585Z,3.88
2023-02-06T05:33:51.150Z,3.92
2023-02-06T05:36:19.168Z,3.93
2023-02-06T05:38:45.790Z,3.96
2023-02-06T05:41:12.247Z,3.97
2023-02-06T05:43:38.675Z,3.98
2023-02-06T05:46:05.254Z,3.99
2023-02-06T05:48:34.353Z,3.99
2023-02-06T05:51:01.626Z,4.00
2023-02-06T05:53:28.058Z,4.02
2023-02-06T05:55:54.557Z,4.01
2023-02-06T05:58:20.919Z,4.02
2023-02-06T06:00:47.295Z,4.02
2023-02-06T06:03:13.694Z,4.01
2023-02-06T06:05:40.176Z,4.01
2023-02-06T06:08:06.803Z,4.00
2023-02-06T06:10:33.224Z,4.00
2023-02-06T06:12:59.838Z,3.99
2023-02-06T06:15:26.283Z,3.99
2023-02-06T06:17:52.808Z,3.99
2023-02-06T06:20:19.197Z,3.99
2023-02-06T06:22:45.537Z,4.00
2023-02-06T06:25:12.077Z,4.00
2023-02-06T06:27:39.235Z,4.01
2023-02-06T06:30:06.158Z,4.00
2023-02-06T06:32:32.482Z,4.00
2023-02-06T06:34:58.819Z,3.99
2023-02-06T06:37:25.195Z,3.99
2023-02-06T06:39:51.643Z,3.98
2023-02-06T06:42:18.029Z,3.97
2023-02-06T06:44:44.536Z,3.98
2023-02-06T06:47:10.909Z,3.97
2023-02-06T06:49:37.344Z,3.97
2023-02-06T06:52:07.038Z,3.98
2023-02-06T06:54:35.265Z,3.99
2023-02-06T06:57:01.601Z,3.99
2023-02-06T06:59:28.088Z,4.00
2023-02-06T07:01:54.496Z,4.01
2023-02-06T07:04:21.123Z,4.01
2023-02-06T07:06:47.601Z,4.00
2023-02-06T07:09:14.603Z,4.02
2023-02-06T07:11:41.390Z,4.02
2023-02-06T07:14:08.047Z,4.03
2023-02-06T07:16:34.467Z,4.04
2023-02-06T07:19:00.862Z,4.06
2023-02-06T07:21:27.212Z,4.08
2023-02-06T07:23:53.678Z,4.10
2023-02-06T07:26:20.169Z,4.12
2023-02-06T07:28:49.077Z,4.14
2023-02-06T07:31:16.131Z,4.16
2023-02-06T07:33:42.472Z,4.17
2023-02-06T07:36:13.764Z,4.19
2023-02-06T07:38:40.775Z,4.20
2023-02-06T07:41:07.891Z,4.21
2023-02-06T07:43:34.560Z,4.22
2023-02-06T07:46:02.107Z,4.25
2023-02-06T07:48:29.068Z,4.27
2023-02-06T07:50:55.563Z,4.30
2023-02-06T07:53:22.365Z,4.33
2023-02-06T07:55:49.074Z,4.36
2023-02-06T07:58:15.604Z,4.39
2023-02-06T08:00:42.081Z,4.45
2023-02-06T08:03:09.601Z,4.48
2023-02-06T08:05:39.255Z,4.52
2023-02-06T08:08:07.325Z,4.57
2023-02-06T08:10:33.719Z,4.59
2023-02-06T08:13:00.111Z,4.62
2023-02-06T08:15:26.564Z,4.66
2023-02-06T08:17:53.143Z,4.69
2023-02-06T08:20:19.623Z,4.70
2023-02-06T08:22:46.595Z,4.72
2023-02-06T08:25:13.022Z,4.72
2023-02-06T08:27:39.380Z,4.74
2023-02-06T08:30:06.267Z,4.75
2023-02-06T08:32:34.303Z,4.77
2023-02-06T08:35:00.781Z,4.79
2023-02-06T08:37:27.524Z,4.82
2023-02-06T08:39:53.880Z,4.86
2023-02-06T08:42:20.226Z,4.88
2023-02-06T08:44:46.639Z,4.93
2023-02-06T08:47:13.426Z,4.96
2023-02-06T08:49:39.899Z,4.99
2023-02-06T08:52:06.363Z,5.03
2023-02-06T08:54:35.496Z,5.06
2023-02-06T08:57:03.160Z,5.10
2023-02-06T08:59:30.956Z,5.12
2023-02-06T09:01:57.351Z,5.15
2023-02-06T09:04:23.801Z,5.19
2023-02-06T09:06:51.917Z,5.21
2023-02-06T09:09:19.005Z,5.24
2023-02-06T09:11:45.364Z,5.27
2023-02-06T09:14:17.111Z,5.30
2023-02-06T09:16:43.679Z,5.31
2023-02-06T09:19:12.687Z,5.32
2023-02-06T09:21:39.075Z,5.34
2023-02-06T09:24:08.045Z,5.33
2023-02-06T09:26:58.101Z,5.35
2023-02-06T09:29:25.806Z,5.36
2023-02-06T09:31:52.273Z,5.39
2023-02-06T09:34:18.618Z,5.41
2023-02-06T09:36:45.777Z,5.43
2023-02-06T09:39:12.226Z,5.45
2023-02-06T09:41:48.113Z,5.47
2023-02-06T09:44:24.520Z,5.50
2023-02-06T09:47:06.394Z,5.53
2023-02-06T09:49:39.950Z,5.55
2023-02-06T09:52:19.433Z,5.58
2023-02-06T09:55:03.584Z,5.62
2023-02-06T09:57:57.540Z,5.68
2023-02-06T10:00:32.726Z,5.75
2023-02-06T10:03:30.325Z,5.82
2023-02-06T10:06:14.993Z,5.87
2023-02-06T10:08:53.965Z,5.91
2023-02-06T10:11:34.889Z,5.96
2023-02-06T10:14:06.581Z,5.99
2023-02-06T10:16:43.191Z,6.02
2023-02-06T10:19:33.790Z,6.04
2023-02-06T10:22:04.899Z,6.07
2023-02-06T10:24:46.282Z,6.08
2023-02-06T10:27:15.002Z,6.09
2023-02-06T10:29:44.996Z,6.09
2023-02-06T10:32:26.994Z,6.09
2023-02-06T10:35:05.740Z,6.10
2023-02-06T10:37:32.159Z,6.08
2023-02-06T10:40:22.713Z,6.09
2023-02-06T10:43:07.407Z,6.07
2023-02-06T10:45:55.515Z,6.06
2023-02-06T10:48:32.809Z,6.07
2023-02-06T10:51:14.747Z,6.08
2023-02-06T10:53:53.185Z,6.09
2023-02-06T10:56:27.282Z,6.11
2023-02-06T10:58:58.728Z,6.14
2023-02-06T11:01:29.615Z,6.16
2023-02-06T11:03:58.793Z,6.19
2023-02-06T11:06:28.096Z,6.22
2023-02-06T11:08:54.533Z,6.25
2023-02-06T11:11:23.415Z,6.29
2023-02-06T11:14:04.277Z,6.34
2023-02-06T11:16:35.957Z,6.40
2023-02-06T11:19:16.461Z,6.46
2023-02-06T11:21:47.583Z,6.51
2023-02-06T11:24:16.225Z,6.55
2023-02-06T11:26:46.891Z,6.58
2023-02-06T11:29:27.021Z,6.62
2023-02-06T11:31:58.583Z,6.64
2023-02-06T11:34:38.846Z,6.65
2023-02-06T11:37:26.525Z,6.66
2023-02-06T11:39:53.477Z,6.64
2023-02-06T11:42:22.452Z,6.64
2023-02-06T11:44:49.137Z,6.64
2023-02-06T11:47:30.198Z,6.67
2023-02-06T11:50:36.038Z,6.70
2023-02-06T11:53:14.797Z,6.75
2023-02-06T11:56:15.891Z,6.81
2023-02-06T11:58:42.902Z,6.86
2023-02-06T12:01:18.750Z,6.90
2023-02-06T12:03:54.755Z,6.97
2023-02-06T12:06:30.583Z,7.03
2023-02-06T12:08:58.616Z,7.11
2023-02-06T12:11:57.752Z,7.16
2023-02-06T12:14:40.116Z,7.19
2023-02-06T12:17:30.931Z,7.25
2023-02-06T12:20:03.963Z,7.30
2023-02-06T12:22:36.629Z,7.33
2023-02-06T12:25:04.786Z,7.35
2023-02-06T12:27:39.558Z,7.39
2023-02-06T12:30:08.868Z,7.42
2023-02-06T12:32:42.862Z,7.47
2023-02-06T12:35:21.944Z,7.53
2023-02-06T12:37:55.221Z,7.58
2023-02-06T12:40:33.722Z,7.63
2023-02-06T12:43:03.033Z,7.71
2023-02-06T12:45:52.175Z,7.79
2023-02-06T12:48:30.736Z,7.90
2023-02-06T12:51:23.909Z,7.97
2023-02-06T12:54:30.016Z,8.07
2023-02-06T12:57:06.712Z,8.15
2023-02-06T13:00:13.105Z,8.22
2023-02-06T13:03:17.863Z,8.30
2023-02-06T13:05:49.041Z,8.35
2023-02-06T13:08:26.782Z,8.43
2023-02-06T13:11:05.968Z,8.48
2023-02-06T13:13:36.690Z,8.54
2023-02-06T13:16:04.565Z,8.60
2023-02-06T13:18:50.490Z,8.68
2023-02-06T13:21:37.897Z,8.76
2023-02-06T13:24:04.230Z,8.82
2023-02-06T13:26:46.239Z,8.90
2023-02-06T13:29:42.413Z,8.94
2023-02-06T13:32:22.650Z,8.94
2023-02-06T13:34:48.939Z,8.93
2023-02-06T13:37:32.483Z,8.90
2023-02-06T13:40:23.167Z,8.88
2023-02-06T13:43:00.972Z,8.87
2023-02-06T13:45:40.449Z,8.88
2023-02-06T13:48:25.085Z,8.89
2023-02-06T13:50:59.412Z,8.89
2023-02-06T13:54:08.008Z,8.89
2023-02-06T13:56:52.006Z,8.89
2023-02-06T13:59:24.273Z,8.88
2023-02-06T14:01:51.544Z,8.86
2023-02-06T14:04:24.869Z,8.84
2023-02-06T14:07:07.288Z,8.82
2023-02-06T14:10:05.203Z,8.76
2023-02-06T14:12:46.983Z,8.70
2023-02-06T14:15:21.932Z,8.64
2023-02-06T14:18:04.344Z,8.58
2023-02-06T14:20:49.964Z,8.52
2023-02-06T14:23:45.387Z,8.49
2023-02-06T14:26:35.133Z,8.47
2023-02-06T14:29:23.735Z,8.48
2023-02-06T14:32:02.007Z,8.48
2023-02-06T14:34:58.980Z,8.50
2023-02-06T14:38:03.494Z,8.51
2023-02-06T14:40:36.460Z,8.51
2023-02-06T14:43:05.912Z,8.51
2023-02-06T14:45:41.598Z,8.51
2023-02-06T14:48:19.854Z,8.48
2023-02-06T14:50:50.730Z,8.46
2023-02-06T14:53:29.189Z,8.44
2023-02-06T14:56:23.721Z,8.40
2023-02-06T14:58:51.283Z,8.34
2023-02-06T15:01:17.622Z,8.30
2023-02-06T15:03:45.647Z,8.26
2023-02-06T15:06:34.708Z,8.23
2023-02-06T15:09:01.602Z,8.19
2023-02-06T15:11:33.043Z,8.16
2023-02-06T15:14:02.499Z,8.12
2023-02-06T15:16:30.362Z,8.08
2023-02-06T15:19:11.180Z,8.04
2023-02-06T15:21:39.757Z,8.00
2023-02-06T15:24:35.197Z,7.97
2023-02-06T15:27:27.403Z,7.93
2023-02-06T15:29:54.649Z,7.90
2023-02-06T15:32:37.897Z,7.89
2023-02-06T15:35:30.312Z,7.85
2023-02-06T15:38:03.692Z,7.84
2023-02-06T15:40:35.679Z,7.82
2023-02-06T15:43:03.033Z,7.80
2023-02-06T15:45:34.372Z,7.79
2023-02-06T15:48:23.476Z,7.76
2023-02-06T15:50:55.812Z,7.73
2023-02-06T15:53:31.485Z,7.70
2023-02-06T15:55:58.475Z,7.65
2023-02-06T15:58:26.016Z,7.62
2023-02-06T16:00:55.482Z,7.57
2023-02-06T16:03:25.784Z,7.53
2023-02-06T16:05:52.727Z,7.47
2023-02-06T16:08:32.034Z,7.43
2023-02-06T16:11:29.758Z,7.38
2023-02-06T16:13:57.202Z,7.33
2023-02-06T16:16:26.118Z,7.29
2023-02-06T16:18:54.989Z,7.24
2023-02-06T16:21:30.910Z,7.19
2023-02-06T16:24:02.567Z,7.13
2023-02-06T16:26:41.772Z,7.09
2023-02-06T16:29:08.056Z,7.03
2023-02-06T16:31:39.661Z,7.00
2023-02-06T16:34:43.113Z,6.96
2023-02-06T16:37:13.343Z,6.92
2023-02-06T16:39:44.332Z,6.85
2023-02-06T16:42:15.612Z,6.81
2023-02-06T16:44:45.820Z,6.75
2023-02-06T16:47:15.350Z,6.68
2023-02-06T16:49:43.117Z,6.61
2023-02-06T16:52:18.152Z,6.55
2023-02-06T16:54:45.664Z,6.48
2023-02-06T16:57:22.346Z,6.42
2023-02-06T16:59:48.886Z,6.35
2023-02-06T17:02:15.622Z,6.28
2023-02-06T17:04:42.375Z,6.23
2023-02-06T17:07:18.051Z,6.17
2023-02-06T17:09:45.277Z,6.10
2023-02-06T17:12:14.121Z,6.05
2023-02-06T17:14:42.542Z,6.01
2023-02-06T17:17:14.226Z,5.94
2023-02-06T17:19:40.707Z,5.89
2023-02-06T17:22:09.110Z,5.83
2023-02-06T17:24:36.417Z,5.78
2023-02-06T17:27:04.565Z,5.73
2023-02-06T17:29:34.159Z,5.67
2023-02-06T17:32:01.823Z,5.62
2023-02-06T17:34:30.195Z,5.56
2023-02-06T17:36:56.972Z,5.51
2023-02-06T17:39:23.612Z,5.46
2023-02-06T17:41:50.554Z,5.42
2023-02-06T17:44:18.666Z,5.37
2023-02-06T17:46:47.012Z,5.34
2023-02-06T17:49:14.389Z,5.30
2023-02-06T17:51:42.088Z,5.24
2023-02-06T17:54:09.209Z,5.21
2023-02-06T17:56:36.546Z,5.16
2023-02-06T17:59:03.325Z,5.12
2023-02-06T18:01:30.194Z,5.08
2023-02-06T18:03:56.792Z,5.03
2023-02-06T18:06:23.430Z,5.01
2023-02-06T18:08:49.763Z,4.98
2023-02-06T18:11:19.193Z,4.95
2023-02-06T18:13:48.213Z,4.93
2023-02-06T18:16:18.708Z,4.89
2023-02-06T18:18:45.682Z,4.83
2023-02-06T18:21:12.105Z,4.78
2023-02-06T18:23:39.301Z,4.75
2023-02-06T18:26:09.313Z,4.72
2023-02-06T18:28:39.279Z,4.69
2023-02-06T18:31:19.368Z,4.66
2023-02-06T18:33:45.942Z,4.62
2023-02-06T18:36:12.299Z,4.58
2023-02-06T18:38:38.785Z,4.54
2023-02-06T18:41:06.214Z,4.51
2023-02-06T18:43:33.139Z,4.47
2023-02-06T18:46:06.958Z,4.42
2023-02-06T18:48:33.378Z,4.38
2023-02-06T18:51:00.755Z,4.33
2023-02-06T18:53:27.137Z,4.28
2023-02-06T18:55:58.347Z,4.24
2023-02-06T18:58:24.682Z,4.19
2023-02-06T19:00:51.038Z,4.14
2023-02-06T19:03:17.463Z,4.11
2023-02-06T19:05:43.875Z,4.04
2023-02-06T19:08:10.239Z,3.99
2023-02-06T19:10:36.893Z,3.97
2023-02-06T19:13:03.753Z,3.93
2023-02-06T19:15:30.825Z,3.91
2023-02-06T19:17:57.320Z,3.89
2023-02-06T19:20:23.723Z,3.88
2023-02-06T19:22:51.586Z,3.86
2023-02-06T19:25:19.144Z,3.85
2023-02-06T19:27:45.702Z,3.84
2023-02-06T19:30:13.467Z,3.81
2023-02-06T19:32:39.972Z,3.80
2023-02-06T19:35:06.758Z,3.77
2023-02-06T19:37:33.249Z,3.73
2023-02-06T19:39:59.600Z,3.70
2023-02-06T19:42:25.968Z,3.68
2023-02-06T19:44:56.156Z,3.66
2023-02-06T19:47:22.929Z,3.62
2023-02-06T19:49:51.786Z,3.59
2023-02-06T19:52:18.633Z,3.55
2023-02-06T19:54:45.384Z,3.49
2023-02-06T19:57:11.716Z,3.43
2023-02-06T19:59:38.092Z,3.38
2023-02-06T20:02:04.530Z,3.33
2023-02-06T20:04:34.545Z,3.28
2023-02-06T20:07:01.831Z,3.22
2023-02-06T20:09:28.501Z,3.19
2023-02-06T20:11:56.016Z,3.16
2023-02-06T20:14:23.440Z,3.11
2023-02-06T20:16:50.227Z,3.07
2023-02-06T20:19:20.968Z,3.03
2023-02-06T20:21:50.189Z,3.00
2023-02-06T20:24:21.753Z,2.96
2023-02-06T20:26:51.229Z,2.90
2023-02-06T20:29:27.654Z,2.86
2023-02-06T20:31:54.994Z,2.80
2023-02-06T20:34:22.176Z,2.76
2023-02-06T20:36:49.599Z,2.75
2023-02-06T20:39:16.608Z,2.73
2023-02-06T20:41:43.942Z,2.72
2023-02-06T20:44:11.853Z,2.73
2023-02-06T20:46:39.535Z,2.74
2023-02-06T20:49:12.321Z,2.75
2023-02-06T20:51:38.692Z,2.76
2023-02-06T20:54:06.461Z,2.79
2023-02-06T20:56:34.444Z,2.80
2023-02-06T20:59:01.283Z,2.82
2023-02-06T21:01:29.628Z,2.84
2023-02-06T21:03:58.804Z,2.86
2023-02-06T21:06:25.793Z,2.87
2023-02-06T21:08:56.502Z,2.88
2023-02-06T21:11:23.022Z,2.89
2023-02-06T21:13:49.546Z,2.89
2023-02-06T21:16:15.875Z,2.89
2023-02-06T21:18:42.621Z,2.88
2023-02-06T21:21:12.853Z,2.84
2023-02-06T21:23:41.120Z,2.80
2023-02-06T21:26:09.523Z,2.75
2023-02-06T21:28:36.857Z,2.68
2023-02-06T21:31:09.375Z,2.62
2023-02-06T21:33:36.944Z,2.57
2023-02-06T21:36:06.657Z,2.53
2023-02-06T21:38:34.645Z,2.49
2023-02-06T21:41:13.724Z,2.47
2023-02-06T21:43:40.483Z,2.47
2023-02-06T21:46:07.641Z,2.45
2023-02-06T21:48:34.833Z,2.44
2023-02-06T21:51:15.925Z,2.46
2023-02-06T21:53:44.074Z,2.46
2023-02-06T21:56:23.192Z,2.47
2023-02-06T21:58:50.450Z,2.46
2023-02-06T22:01:23.839Z,2.47
2023-02-06T22:03:50.909Z,2.45
2023-02-06T22:06:19.756Z,2.44
2023-02-06T22:08:48.266Z,2.44
2023-02-06T22:11:20.732Z,2.42
2023-02-06T22:13:48.054Z,2.40
2023-02-06T22:16:18.911Z,2.39
2023-02-06T22:18:45.443Z,2.36
2023-02-06T22:21:18.944Z,2.34
2023-02-06T22:23:47.040Z,2.32
2023-02-06T22:26:16.507Z,2.30
2023-02-06T22:28:43.640Z,2.28
2023-02-06T22:31:19.354Z,2.27
2023-02-06T22:33:46.518Z,2.24
2023-02-06T22:36:15.384Z,2.22
2023-02-06T22:38:45.141Z,2.20
2023-02-06T22:41:15.582Z,2.18
2023-02-06T22:43:43.493Z,2.17
2023-02-06T22:46:16.782Z,2.15
2023-02-06T22:48:43.164Z,2.14
2023-02-06T22:51:10.600Z,2.12
2023-02-06T22:53:38.317Z,2.10
2023-02-06T22:56:31.926Z,2.08
2023-02-06T22:59:07.421Z,2.07
2023-02-06T23:01:42.853Z,2.05
2023-02-06T23:04:16.613Z,2.03
2023-02-06T23:06:43.840Z,2.02
2023-02-06T23:09:14.306Z,1.99
2023-02-06T23:11:41.080Z,1.97
2023-02-06T23:14:07.576Z,1.94
2023-02-06T23:16:35.323Z,1.93
2023-02-06T23:19:04.480Z,1.92
2023-02-06T23:21:32.318Z,1.89
2023-02-06T23:24:00.662Z,1.89
2023-02-06T23:26:28.088Z,1.86
2023-02-06T23:28:57.387Z,1.86
2023-02-06T23:31:24.640Z,1.83
2023-02-06T23:33:52.007Z,1.82
2023-02-06T23:36:20.724Z,1.79
2023-02-06T23:38:47.962Z,1.78
2023-02-06T23:41:18.019Z,1.77
2023-02-06T23:43:48.782Z,1.74
2023-02-06T23:46:15.432Z,1.70
2023-02-06T23:48:41.831Z,1.69
2023-02-06T23:51:08.224Z,1.66
2023-02-06T23:53:34.795Z,1.64
2023-02-06T23:56:01.136Z,1.63
2023-02-06T23:58:27.742Z,1.60
